Ballston Spa, NY (12020)

7:06 AM EDT on August 21, 2019 (GMT -0400)
Ballston Spa | | Change Station

Elev 210 ft 43.01 °N, 73.86 °W | Updated 37 seconds ago

Thunderstorm
Thunderstorm
65.8 °F
Feels Like 65.8 °F
N
0
Wind Variable Wind from NNE
Gusts 0.0 mph

Today
High -- | Low -- °F
--% Chance of Precip.
Yesterday
High -- | Low -- °F
Precip. -- in
Pressure 29.96 in
Visibility 10.0 miles
Clouds Few 1000 ft
Mostly Cloudy 4000 ft
Overcast 6000 ft
Dew Point 66 °F
Humidity 99%
Rainfall 0.73 in
Snow Depth Not available.
6:07 AM 7:48 PM
Waning Gibbous, 71% visible
METAR KALB 211051Z 12007KT 10SM -TSRA FEW010 BKN040CB OVC060 21/19 A2996 RMK AO2 LTG DSNT ALQDS SLP145 VIS LWR N-NE OCNL LTGICCCCG VC NW-NE TS VC NW-NE MOV NE P0013 T02110189
Pressure 29.96 in
Visibility 10.0 miles
Clouds Few 1000 ft
Mostly Cloudy 4000 ft
Overcast 6000 ft
Dew Point 66 °F
Humidity 99%
Rainfall 0.73 in
Snow Depth Not available.
6:07 AM 7:48 PM
Waning Gibbous, 71% visible
METAR KALB 211051Z 12007KT 10SM -TSRA FEW010 BKN040CB OVC060 21/19 A2996 RMK AO2 LTG DSNT ALQDS SLP145 VIS LWR N-NE OCNL LTGICCCCG VC NW-NE TS VC NW-NE MOV NE P0013 T02110189

Get Severe Weather Alerts

Thanks for signing up!

Be on the lookout for a verification email in your inbox.

You'll start receiving the daily forecast at 6 AM.

×

10-Day Weather Forecast

Almanac

Astronomy

Aug. 21, 2019 Rise Set
Actual Time
Civil Twilight
Nautical Twilight
Astronomical Twilight
Moon
Length of Visible Light
Length of Day
Tomorrow will be .
, % of the Moon is Illuminated

Today's Extremes

State Highs State Lows

Community

WunderPhotos

Category 6

Welcome to Category 6. This is the collective home for Weather Underground's featured writeups by Dr. Jeff Masters (right), Bob Henson (left), Chris Burt, and other regular contributors.

Nearby

Air Quality

  Air Quality AQ Index Pollutant
Not available.

Snow Depth

Station Depth Elevation

Earthquake Activity

City Distance Mag. Time & Date
Minimum magnitude displayed is 2.5.

Coastal Water Temperatures

Place Temperature

Stations

Nearby Weather Stations

Station Location Temp. Windchill Dew Point Humidity Wind Precip. Elev Updated Type
                   

Watches & Warnings

There are currently no watches in effect.